Terminal Aerodrome Forecast
Issued by NWS

Home | Current Version | Previous Version | Text Only | Print | Product List | Glossary On
Versions: 1 2 3 4 5 6 7 8 9 10 11 12 13 14 15 16 17 18 19 20 21 22 23
000
FTUS46 KSEW 281126
TAFHQM
TAF
KHQM 281126Z 2812/2912 17015KT 4SM -RA BR SCT007 OVC015
     FM281800 17018G28KT 3SM RA BR SCT007 OVC015
     FM290000 15013G20KT 5SM -RA BR SCT007 BKN015 OVC030
     FM290600 11013G22KT 4SM -RA BR BKN007 OVC015=

USA.gov is the U.S. government's official web portal to all federal, state and local government web resources and services.